sensor_id;sensor_type;location;lat;lon;timestamp;pressure;altitude;pressure_sealevel;temperature;humidity
44441;BME280;30146;52.268;20.944;2023-07-29T00:00:09;99555.73;;;17.97;76.30
44441;BME280;30146;52.268;20.944;2023-07-29T00:02:43;99556.09;;;17.96;76.30
44441;BME280;30146;52.268;20.944;2023-07-29T00:05:15;99559.43;;;17.96;76.35
44441;BME280;30146;52.268;20.944;2023-07-29T00:07:46;99561.67;;;17.96;76.38
44441;BME280;30146;52.268;20.944;2023-07-29T00:10:17;99564.27;;;17.96;76.45
44441;BME280;30146;52.268;20.944;2023-07-29T00:12:48;99565.98;;;17.96;76.42
44441;BME280;30146;52.268;20.944;2023-07-29T00:15:19;99565.68;;;17.95;76.49
44441;BME280;30146;52.268;20.944;2023-07-29T00:17:50;99566.92;;;17.94;76.45
44441;BME280;30146;52.268;20.944;2023-07-29T00:20:21;99571.88;;;17.92;76.39
44441;BME280;30146;52.268;20.944;2023-07-29T00:22:52;99572.66;;;17.91;76.34
44441;BME280;30146;52.268;20.944;2023-07-29T00:25:24;99573.28;;;17.88;76.33
44441;BME280;30146;52.268;20.944;2023-07-29T00:27:55;99575.80;;;17.86;76.35
44441;BME280;30146;52.268;20.944;2023-07-29T00:30:28;99576.92;;;17.84;76.35
44441;BME280;30146;52.268;20.944;2023-07-29T00:32:58;99579.64;;;17.82;76.36
44441;BME280;30146;52.268;20.944;2023-07-29T00:35:29;99580.33;;;17.79;76.42
44441;BME280;30146;52.268;20.944;2023-07-29T00:38:02;99582.50;;;17.77;76.44
44441;BME280;30146;52.268;20.944;2023-07-29T00:40:36;99583.46;;;17.75;76.49
44441;BME280;30146;52.268;20.944;2023-07-29T00:43:07;99583.42;;;17.72;76.43
44441;BME280;30146;52.268;20.944;2023-07-29T00:45:38;99586.27;;;17.70;76.49
44441;BME280;30146;52.268;20.944;2023-07-29T00:48:09;99586.05;;;17.68;76.47
44441;BME280;30146;52.268;20.944;2023-07-29T00:50:42;99589.79;;;17.66;76.51
44441;BME280;30146;52.268;20.944;2023-07-29T00:53:13;99586.61;;;17.64;76.66
44441;BME280;30146;52.268;20.944;2023-07-29T00:55:44;99587.00;;;17.63;76.62
44441;BME280;30146;52.268;20.944;2023-07-29T00:58:15;99588.42;;;17.62;76.67
44441;BME280;30146;52.268;20.944;2023-07-29T01:00:46;99586.23;;;17.61;76.78
44441;BME280;30146;52.268;20.944;2023-07-29T01:03:18;99592.24;;;17.61;76.85
44441;BME280;30146;52.268;20.944;2023-07-29T01:05:58;99590.55;;;17.61;76.95
44441;BME280;30146;52.268;20.944;2023-07-29T01:08:42;99590.02;;;17.61;76.98
44441;BME280;30146;52.268;20.944;2023-07-29T01:11:28;99592.38;;;17.62;76.99
44441;BME280;30146;52.268;20.944;2023-07-29T01:14:06;99596.35;;;17.62;77.07
44441;BME280;30146;52.268;20.944;2023-07-29T01:16:42;99594.75;;;17.63;77.11
44441;BME280;30146;52.268;20.944;2023-07-29T01:19:29;99591.52;;;17.62;77.07
44441;BME280;30146;52.268;20.944;2023-07-29T01:22:05;99595.99;;;17.63;77.08
44441;BME280;30146;52.268;20.944;2023-07-29T01:24:37;99602.41;;;17.62;77.12
44441;BME280;30146;52.268;20.944;2023-07-29T01:27:09;99603.64;;;17.62;77.15
44441;BME280;30146;52.268;20.944;2023-07-29T01:29:40;99610.09;;;17.61;77.05
44441;BME280;30146;52.268;20.944;2023-07-29T01:32:13;99606.84;;;17.60;77.12
44441;BME280;30146;52.268;20.944;2023-07-29T01:34:48;99608.79;;;17.59;77.11
44441;BME280;30146;52.268;20.944;2023-07-29T01:37:27;99610.40;;;17.58;77.09
44441;BME280;30146;52.268;20.944;2023-07-29T01:40:01;99608.96;;;17.56;76.92
44441;BME280;30146;52.268;20.944;2023-07-29T01:42:32;99610.63;;;17.54;77.06
44441;BME280;30146;52.268;20.944;2023-07-29T01:45:04;99613.55;;;17.54;77.12
44441;BME280;30146;52.268;20.944;2023-07-29T01:47:35;99609.19;;;17.51;76.98
44441;BME280;30146;52.268;20.944;2023-07-29T01:50:11;99611.38;;;17.49;76.94
44441;BME280;30146;52.268;20.944;2023-07-29T01:52:42;99613.39;;;17.46;76.91
44441;BME280;30146;52.268;20.944;2023-07-29T01:55:12;99613.72;;;17.43;76.85
44441;BME280;30146;52.268;20.944;2023-07-29T01:57:44;99613.69;;;17.40;76.85
44441;BME280;30146;52.268;20.944;2023-07-29T02:00:16;99618.49;;;17.38;76.90
44441;BME280;30146;52.268;20.944;2023-07-29T02:02:49;99620.20;;;17.34;76.83
44441;BME280;30146;52.268;20.944;2023-07-29T02:05:20;99620.36;;;17.31;76.86
44441;BME280;30146;52.268;20.944;2023-07-29T02:07:50;99622.58;;;17.28;76.82
44441;BME280;30146;52.268;20.944;2023-07-29T02:10:21;99626.72;;;17.24;76.81
44441;BME280;30146;52.268;20.944;2023-07-29T02:12:52;99627.70;;;17.22;76.96
44441;BME280;30146;52.268;20.944;2023-07-29T02:15:23;99631.77;;;17.20;77.07
44441;BME280;30146;52.268;20.944;2023-07-29T02:17:54;99629.23;;;17.19;77.13
44441;BME280;30146;52.268;20.944;2023-07-29T02:20:25;99633.95;;;17.18;77.24
44441;BME280;30146;52.268;20.944;2023-07-29T02:22:55;99634.84;;;17.17;77.34
44441;BME280;30146;52.268;20.944;2023-07-29T02:25:27;99637.99;;;17.17;77.36
44441;BME280;30146;52.268;20.944;2023-07-29T02:27:58;99641.48;;;17.16;77.34
44441;BME280;30146;52.268;20.944;2023-07-29T02:30:28;99643.81;;;17.14;77.30
44441;BME280;30146;52.268;20.944;2023-07-29T02:33:00;99645.22;;;17.13;77.41
44441;BME280;30146;52.268;20.944;2023-07-29T02:35:31;99639.91;;;17.12;77.41
44441;BME280;30146;52.268;20.944;2023-07-29T02:38:02;99640.78;;;17.12;77.47
44441;BME280;30146;52.268;20.944;2023-07-29T02:40:33;99640.63;;;17.12;77.48
44441;BME280;30146;52.268;20.944;2023-07-29T02:43:04;99640.30;;;17.11;77.54
44441;BME280;30146;52.268;20.944;2023-07-29T02:45:36;99637.79;;;17.10;77.41
44441;BME280;30146;52.268;20.944;2023-07-29T02:48:07;99638.34;;;17.09;77.45
44441;BME280;30146;52.268;20.944;2023-07-29T02:50:37;99643.73;;;17.08;77.47
44441;BME280;30146;52.268;20.944;2023-07-29T02:53:08;99645.15;;;17.08;77.48
44441;BME280;30146;52.268;20.944;2023-07-29T02:55:42;99643.85;;;17.06;77.41
44441;BME280;30146;52.268;20.944;2023-07-29T02:58:13;99645.98;;;17.04;77.46
44441;BME280;30146;52.268;20.944;2023-07-29T03:00:44;99652.39;;;17.04;77.49
44441;BME280;30146;52.268;20.944;2023-07-29T03:03:14;99653.48;;;17.03;77.55
44441;BME280;30146;52.268;20.944;2023-07-29T03:05:47;99654.91;;;17.02;77.52
44441;BME280;30146;52.268;20.944;2023-07-29T03:08:18;99654.08;;;17.01;77.52
44441;BME280;30146;52.268;20.944;2023-07-29T03:10:49;99657.92;;;17.00;77.57
44441;BME280;30146;52.268;20.944;2023-07-29T03:13:20;99658.70;;;16.98;77.52
44441;BME280;30146;52.268;20.944;2023-07-29T03:15:51;99659.48;;;16.97;77.48
44441;BME280;30146;52.268;20.944;2023-07-29T03:18:24;99665.07;;;16.95;77.33
44441;BME280;30146;52.268;20.944;2023-07-29T03:20:56;99667.25;;;16.93;77.38
44441;BME280;30146;52.268;20.944;2023-07-29T03:23:28;99670.22;;;16.92;77.44
44441;BME280;30146;52.268;20.944;2023-07-29T03:26:02;99668.76;;;16.90;77.38
44441;BME280;30146;52.268;20.944;2023-07-29T03:28:40;99669.67;;;16.89;77.48
44441;BME280;30146;52.268;20.944;2023-07-29T03:31:12;99670.58;;;16.88;77.44
44441;BME280;30146;52.268;20.944;2023-07-29T03:33:44;99673.88;;;16.87;77.52
44441;BME280;30146;52.268;20.944;2023-07-29T03:36:16;99673.87;;;16.88;77.57
44441;BME280;30146;52.268;20.944;2023-07-29T03:38:49;99674.38;;;16.88;77.63
44441;BME280;30146;52.268;20.944;2023-07-29T03:41:19;99680.04;;;16.89;77.76
44441;BME280;30146;52.268;20.944;2023-07-29T03:43:50;99681.35;;;16.90;77.83
44441;BME280;30146;52.268;20.944;2023-07-29T03:46:21;99682.66;;;16.92;77.74
44441;BME280;30146;52.268;20.944;2023-07-29T03:48:52;99685.74;;;16.92;77.71
44441;BME280;30146;52.268;20.944;2023-07-29T03:51:23;99689.66;;;16.93;77.76
44441;BME280;30146;52.268;20.944;2023-07-29T03:53:54;99686.67;;;16.95;77.80
44441;BME280;30146;52.268;20.944;2023-07-29T03:56:25;99688.02;;;16.96;77.79
44441;BME280;30146;52.268;20.944;2023-07-29T03:59:05;99687.61;;;16.97;77.77
44441;BME280;30146;52.268;20.944;2023-07-29T04:01:42;99692.87;;;16.99;77.83
44441;BME280;30146;52.268;20.944;2023-07-29T04:04:13;99691.73;;;17.01;77.98
44441;BME280;30146;52.268;20.944;2023-07-29T04:06:47;99691.36;;;17.05;78.10
44441;BME280;30146;52.268;20.944;2023-07-29T04:09:18;99693.45;;;17.12;78.18
44441;BME280;30146;52.268;20.944;2023-07-29T04:11:49;99692.40;;;17.20;78.43
44441;BME280;30146;52.268;20.944;2023-07-29T04:14:21;99693.09;;;17.31;78.51
44441;BME280;30146;52.268;20.944;2023-07-29T04:16:52;99694.02;;;17.40;78.39
44441;BME280;30146;52.268;20.944;2023-07-29T04:19:22;99695.41;;;17.48;78.21
44441;BME280;30146;52.268;20.944;2023-07-29T04:21:54;99692.33;;;17.58;78.25
44441;BME280;30146;52.268;20.944;2023-07-29T04:24:25;99694.65;;;17.66;78.03
44441;BME280;30146;52.268;20.944;2023-07-29T04:26:58;99705.20;;;17.74;77.89
44441;BME280;30146;52.268;20.944;2023-07-29T04:29:36;99709.06;;;17.79;77.66
44441;BME280;30146;52.268;20.944;2023-07-29T04:32:07;99714.04;;;17.84;77.48
44441;BME280;30146;52.268;20.944;2023-07-29T04:34:38;99717.89;;;17.86;77.33
44441;BME280;30146;52.268;20.944;2023-07-29T04:37:09;99724.90;;;17.92;77.43
44441;BME280;30146;52.268;20.944;2023-07-29T04:39:42;99726.31;;;17.98;77.43
44441;BME280;30146;52.268;20.944;2023-07-29T04:42:13;99725.09;;;18.05;77.33
44441;BME280;30146;52.268;20.944;2023-07-29T04:44:44;99732.61;;;18.11;77.18
44441;BME280;30146;52.268;20.944;2023-07-29T04:47:15;99736.23;;;18.18;77.26
44441;BME280;30146;52.268;20.944;2023-07-29T04:49:46;99737.48;;;18.24;77.11
44441;BME280;30146;52.268;20.944;2023-07-29T04:52:16;99741.35;;;18.30;77.01
44441;BME280;30146;52.268;20.944;2023-07-29T04:54:50;99740.42;;;18.34;76.84
44441;BME280;30146;52.268;20.944;2023-07-29T04:57:28;99740.52;;;18.36;76.46
44441;BME280;30146;52.268;20.944;2023-07-29T04:59:59;99742.91;;;18.36;76.22
44441;BME280;30146;52.268;20.944;2023-07-29T05:02:30;99746.81;;;18.34;75.83
44441;BME280;30146;52.268;20.944;2023-07-29T05:05:02;99752.00;;;18.31;75.75
44441;BME280;30146;52.268;20.944;2023-07-29T05:07:36;99755.08;;;18.28;75.77
44441;BME280;30146;52.268;20.944;2023-07-29T05:10:09;99759.79;;;18.27;75.81
44441;BME280;30146;52.268;20.944;2023-07-29T05:12:41;99765.08;;;18.25;75.70
44441;BME280;30146;52.268;20.944;2023-07-29T05:15:13;99763.32;;;18.22;75.64
44441;BME280;30146;52.268;20.944;2023-07-29T05:18:14;99758.23;;;18.21;75.80
44441;BME280;30146;52.268;20.944;2023-07-29T05:21:38;99764.69;;;18.23;75.82
44441;BME280;30146;52.268;20.944;2023-07-29T05:24:09;99759.91;;;18.25;76.02
44441;BME280;30146;52.268;20.944;2023-07-29T05:26:40;99757.98;;;18.29;75.98
44441;BME280;30146;52.268;20.944;2023-07-29T05:29:11;99760.20;;;18.33;75.96
44441;BME280;30146;52.268;20.944;2023-07-29T05:31:41;99760.11;;;18.35;75.60
44441;BME280;30146;52.268;20.944;2023-07-29T05:34:12;99761.69;;;18.38;75.77
44441;BME280;30146;52.268;20.944;2023-07-29T05:36:49;99759.95;;;18.41;75.79
44441;BME280;30146;52.268;20.944;2023-07-29T05:39:22;99759.55;;;18.46;75.75
44441;BME280;30146;52.268;20.944;2023-07-29T05:49:33;99759.73;;;18.62;75.10
44441;BME280;30146;52.268;20.944;2023-07-29T05:52:07;99760.48;;;18.68;75.19
44441;BME280;30146;52.268;20.944;2023-07-29T05:54:38;99763.02;;;18.76;75.27
44441;BME280;30146;52.268;20.944;2023-07-29T05:57:09;99763.30;;;18.84;75.30
44441;BME280;30146;52.268;20.944;2023-07-29T05:59:40;99765.18;;;18.94;75.16
44441;BME280;30146;52.268;20.944;2023-07-29T06:02:11;99766.80;;;19.06;75.07
44441;BME280;30146;52.268;20.944;2023-07-29T06:08:38;99779.20;;;19.87;76.00
44441;BME280;30146;52.268;20.944;2023-07-29T06:11:09;99780.69;;;20.18;75.77
44441;BME280;30146;52.268;20.944;2023-07-29T06:13:40;99786.48;;;20.62;75.87
44441;BME280;30146;52.268;20.944;2023-07-29T06:16:11;99792.91;;;21.05;75.51
44441;BME280;30146;52.268;20.944;2023-07-29T06:18:42;99796.30;;;21.45;75.14
44441;BME280;30146;52.268;20.944;2023-07-29T06:21:13;99789.41;;;21.75;73.96
44441;BME280;30146;52.268;20.944;2023-07-29T06:23:47;99790.24;;;21.94;73.01
44441;BME280;30146;52.268;20.944;2023-07-29T06:26:18;99795.62;;;22.15;72.50
44441;BME280;30146;52.268;20.944;2023-07-29T06:28:49;99798.77;;;22.28;71.63
44441;BME280;30146;52.268;20.944;2023-07-29T06:31:19;99803.52;;;22.46;71.18
44441;BME280;30146;52.268;20.944;2023-07-29T06:33:51;99808.26;;;22.71;71.00
44441;BME280;30146;52.268;20.944;2023-07-29T06:36:24;99812.54;;;23.16;71.39
44441;BME280;30146;52.268;20.944;2023-07-29T06:38:55;99814.61;;;23.31;70.24
44441;BME280;30146;52.268;20.944;2023-07-29T06:41:25;99820.82;;;23.47;69.41
44441;BME280;30146;52.268;20.944;2023-07-29T06:43:57;99823.54;;;23.89;70.04
44441;BME280;30146;52.268;20.944;2023-07-29T06:46:28;99824.95;;;24.50;69.85
44441;BME280;30146;52.268;20.944;2023-07-29T06:49:01;99823.64;;;24.97;69.00
44441;BME280;30146;52.268;20.944;2023-07-29T06:51:31;99820.17;;;25.67;68.06
44441;BME280;30146;52.268;20.944;2023-07-29T06:54:04;99813.72;;;26.57;67.76
44441;BME280;30146;52.268;20.944;2023-07-29T06:56:36;99815.41;;;27.59;68.04
44441;BME280;30146;52.268;20.944;2023-07-29T06:59:10;99816.09;;;28.62;67.30
44441;BME280;30146;52.268;20.944;2023-07-29T07:01:43;99815.63;;;29.25;65.64
44441;BME280;30146;52.268;20.944;2023-07-29T07:04:14;99815.27;;;29.43;62.77
44441;BME280;30146;52.268;20.944;2023-07-29T07:06:56;99817.91;;;29.81;62.43
44441;BME280;30146;52.268;20.944;2023-07-29T07:09:29;99821.44;;;30.13;60.65
44441;BME280;30146;52.268;20.944;2023-07-29T07:11:59;99820.66;;;29.94;58.45
44441;BME280;30146;52.268;20.944;2023-07-29T07:14:32;99816.71;;;29.93;57.82
44441;BME280;30146;52.268;20.944;2023-07-29T07:17:05;99814.05;;;30.04;58.02
44441;BME280;30146;52.268;20.944;2023-07-29T07:19:39;99806.66;;;30.09;57.04
44441;BME280;30146;52.268;20.944;2023-07-29T07:22:10;99803.43;;;30.12;56.81
44441;BME280;30146;52.268;20.944;2023-07-29T07:24:41;99805.13;;;30.18;56.06
44441;BME280;30146;52.268;20.944;2023-07-29T07:27:13;99807.02;;;30.25;55.66
44441;BME280;30146;52.268;20.944;2023-07-29T07:29:44;99806.41;;;30.30;55.27
44441;BME280;30146;52.268;20.944;2023-07-29T07:32:15;99807.51;;;30.42;55.28
44441;BME280;30146;52.268;20.944;2023-07-29T07:34:46;99806.77;;;30.47;54.36
44441;BME280;30146;52.268;20.944;2023-07-29T07:37:16;99801.74;;;30.41;53.92
44441;BME280;30146;52.268;20.944;2023-07-29T07:39:47;99800.43;;;30.38;53.66
44441;BME280;30146;52.268;20.944;2023-07-29T07:42:18;99799.77;;;30.36;53.37
44441;BME280;30146;52.268;20.944;2023-07-29T07:44:49;99797.29;;;30.43;53.26
44441;BME280;30146;52.268;20.944;2023-07-29T07:47:20;99797.39;;;30.48;52.78
44441;BME280;30146;52.268;20.944;2023-07-29T07:49:50;99798.23;;;30.57;52.84
44441;BME280;30146;52.268;20.944;2023-07-29T07:52:21;99803.22;;;30.70;52.46
44441;BME280;30146;52.268;20.944;2023-07-29T07:54:54;99806.64;;;30.80;52.27
44441;BME280;30146;52.268;20.944;2023-07-29T07:57:25;99809.82;;;30.93;52.14
44441;BME280;30146;52.268;20.944;2023-07-29T07:59:56;99805.60;;;31.03;51.29
44441;BME280;30146;52.268;20.944;2023-07-29T08:02:27;99805.96;;;31.10;50.83
44441;BME280;30146;52.268;20.944;2023-07-29T08:04:57;99800.39;;;31.04;49.82
44441;BME280;30146;52.268;20.944;2023-07-29T08:07:29;99800.70;;;30.98;49.68
44441;BME280;30146;52.268;20.944;2023-07-29T08:09:59;99802.59;;;31.00;49.92
44441;BME280;30146;52.268;20.944;2023-07-29T08:12:30;99800.73;;;30.99;48.96
44441;BME280;30146;52.268;20.944;2023-07-29T08:15:01;99795.52;;;30.95;49.17
44441;BME280;30146;52.268;20.944;2023-07-29T08:17:32;99799.06;;;30.98;49.35
44441;BME280;30146;52.268;20.944;2023-07-29T08:20:06;99795.92;;;31.00;48.51
44441;BME280;30146;52.268;20.944;2023-07-29T08:22:37;99792.68;;;30.97;48.47
44441;BME280;30146;52.268;20.944;2023-07-29T08:25:09;99793.48;;;30.99;48.07
44441;BME280;30146;52.268;20.944;2023-07-29T08:27:40;99789.68;;;31.02;47.67
44441;BME280;30146;52.268;20.944;2023-07-29T08:30:11;99788.34;;;31.10;48.23
44441;BME280;30146;52.268;20.944;2023-07-29T08:32:42;99788.77;;;31.11;47.62
44441;BME280;30146;52.268;20.944;2023-07-29T08:35:15;99788.64;;;30.92;46.83
44441;BME280;30146;52.268;20.944;2023-07-29T08:37:46;99790.34;;;30.68;46.28
44441;BME280;30146;52.268;20.944;2023-07-29T08:40:22;99783.89;;;30.55;46.34
44441;BME280;30146;52.268;20.944;2023-07-29T08:43:02;99781.11;;;30.48;46.40
44441;BME280;30146;52.268;20.944;2023-07-29T08:45:36;99780.52;;;30.52;47.30
44441;BME280;30146;52.268;20.944;2023-07-29T08:48:10;99781.17;;;30.58;46.76
44441;BME280;30146;52.268;20.944;2023-07-29T08:50:42;99782.95;;;30.49;45.30
44441;BME280;30146;52.268;20.944;2023-07-29T08:53:15;99783.40;;;30.27;44.89
44441;BME280;30146;52.268;20.944;2023-07-29T08:55:46;99787.11;;;30.11;44.89
44441;BME280;30146;52.268;20.944;2023-07-29T08:58:21;99780.79;;;29.91;44.56
44441;BME280;30146;52.268;20.944;2023-07-29T09:00:52;99782.34;;;29.70;44.48
44441;BME280;30146;52.268;20.944;2023-07-29T09:03:23;99789.08;;;29.56;44.53
44441;BME280;30146;52.268;20.944;2023-07-29T09:05:54;99788.20;;;29.47;44.97
44441;BME280;30146;52.268;20.944;2023-07-29T09:08:26;99786.16;;;29.38;44.50
44441;BME280;30146;52.268;20.944;2023-07-29T09:10:57;99783.95;;;29.21;44.54
44441;BME280;30146;52.268;20.944;2023-07-29T09:13:28;99781.86;;;29.15;44.68
44441;BME280;30146;52.268;20.944;2023-07-29T09:15:59;99781.09;;;29.12;44.61
44441;BME280;30146;52.268;20.944;2023-07-29T09:18:32;99782.83;;;29.04;44.43
44441;BME280;30146;52.268;20.944;2023-07-29T09:21:03;99783.69;;;28.98;44.75
44441;BME280;30146;52.268;20.944;2023-07-29T09:23:42;99783.17;;;28.94;44.88
44441;BME280;30146;52.268;20.944;2023-07-29T09:26:13;99781.23;;;28.91;44.47
44441;BME280;30146;52.268;20.944;2023-07-29T09:28:44;99777.13;;;28.82;44.21
44441;BME280;30146;52.268;20.944;2023-07-29T09:31:28;99778.61;;;28.77;44.67
44441;BME280;30146;52.268;20.944;2023-07-29T09:34:01;99780.46;;;28.76;44.52
44441;BME280;30146;52.268;20.944;2023-07-29T09:40:15;99773.30;;;28.69;44.06
44441;BME280;30146;52.268;20.944;2023-07-29T09:42:55;99771.55;;;28.64;44.35
44441;BME280;30146;52.268;20.944;2023-07-29T09:45:27;99773.01;;;28.66;44.22
44441;BME280;30146;52.268;20.944;2023-07-29T09:47:59;99772.35;;;28.62;44.11
44441;BME280;30146;52.268;20.944;2023-07-29T09:50:30;99770.52;;;28.63;44.46
44441;BME280;30146;52.268;20.944;2023-07-29T09:55:54;99770.69;;;28.75;44.22
44441;BME280;30146;52.268;20.944;2023-07-29T09:58:30;99762.55;;;28.74;44.32
44441;BME280;30146;52.268;20.944;2023-07-29T10:01:19;99763.55;;;28.78;44.39
44441;BME280;30146;52.268;20.944;2023-07-29T10:11:44;99756.61;;;28.81;43.93
44441;BME280;30146;52.268;20.944;2023-07-29T10:14:16;99759.31;;;28.79;43.77
44441;BME280;30146;52.268;20.944;2023-07-29T10:16:48;99765.21;;;28.79;43.68
44441;BME280;30146;52.268;20.944;2023-07-29T10:19:20;99766.03;;;28.78;43.62
44441;BME280;30146;52.268;20.944;2023-07-29T10:21:51;99763.65;;;28.77;43.38
44441;BME280;30146;52.268;20.944;2023-07-29T10:24:27;99764.40;;;28.71;43.17
44441;BME280;30146;52.268;20.944;2023-07-29T10:27:01;99758.36;;;28.63;43.15
44441;BME280;30146;52.268;20.944;2023-07-29T10:29:36;99752.01;;;28.50;43.46
44441;BME280;30146;52.268;20.944;2023-07-29T10:32:09;99752.45;;;28.41;43.70
44441;BME280;30146;52.268;20.944;2023-07-29T10:34:41;99748.17;;;28.40;43.76
44441;BME280;30146;52.268;20.944;2023-07-29T10:37:12;99746.30;;;28.41;43.90
44441;BME280;30146;52.268;20.944;2023-07-29T10:39:53;99750.09;;;28.44;44.25
44441;BME280;30146;52.268;20.944;2023-07-29T10:42:25;99751.04;;;28.47;43.81
44441;BME280;30146;52.268;20.944;2023-07-29T10:44:56;99748.30;;;28.48;43.95
44441;BME280;30146;52.268;20.944;2023-07-29T10:47:28;99746.33;;;28.50;43.85
44441;BME280;30146;52.268;20.944;2023-07-29T10:50:02;99744.55;;;28.50;43.40
44441;BME280;30146;52.268;20.944;2023-07-29T10:52:42;99739.27;;;28.50;43.46
44441;BME280;30146;52.268;20.944;2023-07-29T10:55:30;99735.42;;;28.48;43.23
44441;BME280;30146;52.268;20.944;2023-07-29T10:58:15;99729.24;;;28.47;43.29
44441;BME280;30146;52.268;20.944;2023-07-29T11:00:47;99735.00;;;28.49;43.62
44441;BME280;30146;52.268;20.944;2023-07-29T11:03:20;99734.92;;;28.52;43.67
44441;BME280;30146;52.268;20.944;2023-07-29T11:05:54;99734.59;;;28.55;43.58
44441;BME280;30146;52.268;20.944;2023-07-29T11:08:29;99739.35;;;28.57;43.69
44441;BME280;30146;52.268;20.944;2023-07-29T11:11:05;99737.58;;;28.59;43.57
44441;BME280;30146;52.268;20.944;2023-07-29T11:13:37;99730.83;;;28.60;42.99
44441;BME280;30146;52.268;20.944;2023-07-29T11:16:17;99731.65;;;28.58;42.98
44441;BME280;30146;52.268;20.944;2023-07-29T11:18:50;99729.39;;;28.58;43.04
44441;BME280;30146;52.268;20.944;2023-07-29T11:21:21;99725.70;;;28.56;42.91
44441;BME280;30146;52.268;20.944;2023-07-29T11:23:55;99717.06;;;28.51;42.75
44441;BME280;30146;52.268;20.944;2023-07-29T11:26:28;99714.98;;;28.45;42.90
44441;BME280;30146;52.268;20.944;2023-07-29T11:29:00;99707.84;;;28.41;43.01
44441;BME280;30146;52.268;20.944;2023-07-29T11:31:41;99709.53;;;28.36;42.76
44441;BME280;30146;52.268;20.944;2023-07-29T11:34:12;99701.64;;;28.30;43.01
44441;BME280;30146;52.268;20.944;2023-07-29T11:36:47;99696.52;;;28.23;42.47
44441;BME280;30146;52.268;20.944;2023-07-29T11:39:21;99691.91;;;28.04;42.03
44441;BME280;30146;52.268;20.944;2023-07-29T11:41:52;99686.94;;;27.84;41.93
44441;BME280;30146;52.268;20.944;2023-07-29T11:44:22;99682.47;;;27.67;42.29
44441;BME280;30146;52.268;20.944;2023-07-29T11:46:53;99683.91;;;27.53;42.53
44441;BME280;30146;52.268;20.944;2023-07-29T11:49:24;99680.23;;;27.45;42.95
44441;BME280;30146;52.268;20.944;2023-07-29T11:51:55;99676.61;;;27.41;43.28
44441;BME280;30146;52.268;20.944;2023-07-29T11:54:27;99676.36;;;27.38;43.47
44441;BME280;30146;52.268;20.944;2023-07-29T11:56:58;99668.52;;;27.37;43.48
44441;BME280;30146;52.268;20.944;2023-07-29T11:59:30;99665.64;;;27.36;43.83
44441;BME280;30146;52.268;20.944;2023-07-29T12:02:02;99669.70;;;27.38;43.88
44441;BME280;30146;52.268;20.944;2023-07-29T12:04:36;99661.46;;;27.32;43.43
44441;BME280;30146;52.268;20.944;2023-07-29T12:07:08;99657.80;;;27.26;43.33
44441;BME280;30146;52.268;20.944;2023-07-29T12:09:40;99654.70;;;27.23;43.65
44441;BME280;30146;52.268;20.944;2023-07-29T12:12:13;99657.66;;;27.21;43.45
44441;BME280;30146;52.268;20.944;2023-07-29T12:14:46;99651.45;;;27.12;43.06
44441;BME280;30146;52.268;20.944;2023-07-29T12:17:17;99654.48;;;26.99;43.14
44441;BME280;30146;52.268;20.944;2023-07-29T12:19:49;99654.29;;;26.90;43.37
44441;BME280;30146;52.268;20.944;2023-07-29T12:22:21;99651.81;;;26.83;43.50
44441;BME280;30146;52.268;20.944;2023-07-29T12:24:52;99647.23;;;26.81;43.80
44441;BME280;30146;52.268;20.944;2023-07-29T12:27:23;99643.79;;;26.80;43.72
44441;BME280;30146;52.268;20.944;2023-07-29T12:29:54;99638.33;;;26.78;43.80
44441;BME280;30146;52.268;20.944;2023-07-29T12:32:27;99640.33;;;26.75;43.55
44441;BME280;30146;52.268;20.944;2023-07-29T12:34:59;99641.35;;;26.68;43.68
44441;BME280;30146;52.268;20.944;2023-07-29T12:37:34;99639.31;;;26.63;43.84
44441;BME280;30146;52.268;20.944;2023-07-29T12:40:06;99637.58;;;26.63;44.09
44441;BME280;30146;52.268;20.944;2023-07-29T12:42:38;99638.95;;;26.67;44.63
44441;BME280;30146;52.268;20.944;2023-07-29T12:45:10;99636.85;;;26.73;44.41
44441;BME280;30146;52.268;20.944;2023-07-29T12:47:53;99629.69;;;26.79;44.53
44441;BME280;30146;52.268;20.944;2023-07-29T12:50:44;99630.14;;;26.88;45.15
44441;BME280;30146;52.268;20.944;2023-07-29T12:53:15;99626.13;;;26.95;44.72
44441;BME280;30146;52.268;20.944;2023-07-29T12:55:47;99627.55;;;27.03;44.60
44441;BME280;30146;52.268;20.944;2023-07-29T12:58:20;99625.73;;;27.07;44.58
44441;BME280;30146;52.268;20.944;2023-07-29T13:00:53;99622.89;;;27.14;44.49
44441;BME280;30146;52.268;20.944;2023-07-29T13:03:25;99620.13;;;27.17;44.37
44441;BME280;30146;52.268;20.944;2023-07-29T13:06:07;99620.02;;;27.20;44.12
44441;BME280;30146;52.268;20.944;2023-07-29T13:08:39;99615.75;;;27.21;43.84
44441;BME280;30146;52.268;20.944;2023-07-29T13:11:13;99614.98;;;27.22;44.08
44441;BME280;30146;52.268;20.944;2023-07-29T13:14:10;99616.02;;;27.22;43.91
44441;BME280;30146;52.268;20.944;2023-07-29T13:16:57;99609.48;;;27.18;43.81
44441;BME280;30146;52.268;20.944;2023-07-29T13:19:29;99611.65;;;27.18;43.96
44441;BME280;30146;52.268;20.944;2023-07-29T13:22:14;99607.41;;;27.18;43.82
44441;BME280;30146;52.268;20.944;2023-07-29T13:24:57;99602.55;;;27.18;43.92
44441;BME280;30146;52.268;20.944;2023-07-29T13:27:55;99598.27;;;27.14;43.89
44441;BME280;30146;52.268;20.944;2023-07-29T13:30:26;99596.26;;;27.12;43.76
44441;BME280;30146;52.268;20.944;2023-07-29T13:33:11;99594.33;;;27.11;43.89
44441;BME280;30146;52.268;20.944;2023-07-29T13:35:46;99589.58;;;27.10;43.96
44441;BME280;30146;52.268;20.944;2023-07-29T13:42:11;99581.66;;;27.12;44.27
44441;BME280;30146;52.268;20.944;2023-07-29T13:48:58;99577.70;;;27.17;44.31
44441;BME280;30146;52.268;20.944;2023-07-29T13:51:52;99578.16;;;27.14;44.24
44441;BME280;30146;52.268;20.944;2023-07-29T13:54:23;99574.36;;;27.15;44.39